sensor_id;sensor_type;location;lat;lon;timestamp;P1;durP1;ratioP1;P2;durP2;ratioP2
23270;SDS011;11804;51.118;17.058;2023-06-04T00:01:02;2.07;;;1.07;;
23270;SDS011;11804;51.118;17.058;2023-06-04T00:03:30;2.23;;;1.30;;
23270;SDS011;11804;51.118;17.058;2023-06-04T00:05:58;3.07;;;1.50;;
23270;SDS011;11804;51.118;17.058;2023-06-04T00:08:26;1.87;;;1.20;;
23270;SDS011;11804;51.118;17.058;2023-06-04T00:10:53;1.80;;;1.20;;
23270;SDS011;11804;51.118;17.058;2023-06-04T00:13:21;2.43;;;1.30;;
23270;SDS011;11804;51.118;17.058;2023-06-04T00:15:48;2.83;;;1.50;;
23270;SDS011;11804;51.118;17.058;2023-06-04T00:18:16;2.20;;;1.10;;
23270;SDS011;11804;51.118;17.058;2023-06-04T00:20:44;3.40;;;0.97;;
23270;SDS011;11804;51.118;17.058;2023-06-04T00:23:11;2.70;;;1.20;;
23270;SDS011;11804;51.118;17.058;2023-06-04T00:25:39;3.80;;;1.10;;
23270;SDS011;11804;51.118;17.058;2023-06-04T00:28:06;2.30;;;1.60;;
23270;SDS011;11804;51.118;17.058;2023-06-04T00:30:34;2.87;;;1.60;;
23270;SDS011;11804;51.118;17.058;2023-06-04T00:33:01;2.83;;;1.40;;
23270;SDS011;11804;51.118;17.058;2023-06-04T00:35:31;2.23;;;1.50;;
23270;SDS011;11804;51.118;17.058;2023-06-04T00:37:59;2.70;;;1.33;;
23270;SDS011;11804;51.118;17.058;2023-06-04T00:40:27;2.47;;;1.20;;
23270;SDS011;11804;51.118;17.058;2023-06-04T00:42:55;2.23;;;1.37;;
23270;SDS011;11804;51.118;17.058;2023-06-04T00:45:23;1.97;;;1.10;;
23270;SDS011;11804;51.118;17.058;2023-06-04T00:47:52;3.83;;;1.30;;
23270;SDS011;11804;51.118;17.058;2023-06-04T00:50:19;2.57;;;1.40;;
23270;SDS011;11804;51.118;17.058;2023-06-04T00:52:48;1.60;;;1.20;;
23270;SDS011;11804;51.118;17.058;2023-06-04T00:55:16;2.60;;;1.40;;
23270;SDS011;11804;51.118;17.058;2023-06-04T00:57:44;2.93;;;1.00;;
23270;SDS011;11804;51.118;17.058;2023-06-04T01:00:12;1.93;;;1.13;;
23270;SDS011;11804;51.118;17.058;2023-06-04T01:02:41;2.70;;;1.27;;
23270;SDS011;11804;51.118;17.058;2023-06-04T01:07:44;2.53;;;1.03;;
23270;SDS011;11804;51.118;17.058;2023-06-04T01:10:13;2.00;;;1.33;;
23270;SDS011;11804;51.118;17.058;2023-06-04T01:12:42;3.37;;;1.80;;
23270;SDS011;11804;51.118;17.058;2023-06-04T01:15:10;2.17;;;1.27;;
23270;SDS011;11804;51.118;17.058;2023-06-04T01:17:42;4.57;;;1.53;;
23270;SDS011;11804;51.118;17.058;2023-06-04T01:20:20;4.23;;;1.77;;
23270;SDS011;11804;51.118;17.058;2023-06-04T01:23:02;3.10;;;1.40;;
23270;SDS011;11804;51.118;17.058;2023-06-04T01:25:39;1.73;;;1.20;;
23270;SDS011;11804;51.118;17.058;2023-06-04T01:28:11;3.27;;;1.37;;
23270;SDS011;11804;51.118;17.058;2023-06-04T01:30:42;3.47;;;1.50;;
23270;SDS011;11804;51.118;17.058;2023-06-04T01:33:16;2.23;;;1.47;;
23270;SDS011;11804;51.118;17.058;2023-06-04T01:35:46;3.00;;;1.43;;
23270;SDS011;11804;51.118;17.058;2023-06-04T01:38:14;2.93;;;1.43;;
23270;SDS011;11804;51.118;17.058;2023-06-04T01:40:42;2.60;;;1.40;;
23270;SDS011;11804;51.118;17.058;2023-06-04T01:43:10;1.40;;;1.20;;
23270;SDS011;11804;51.118;17.058;2023-06-04T01:45:38;2.63;;;1.40;;
23270;SDS011;11804;51.118;17.058;2023-06-04T01:48:06;4.20;;;1.70;;
23270;SDS011;11804;51.118;17.058;2023-06-04T01:50:34;3.97;;;1.90;;
23270;SDS011;11804;51.118;17.058;2023-06-04T01:53:01;2.47;;;1.20;;
23270;SDS011;11804;51.118;17.058;2023-06-04T01:55:29;3.10;;;1.40;;
23270;SDS011;11804;51.118;17.058;2023-06-04T01:57:58;1.53;;;1.27;;
23270;SDS011;11804;51.118;17.058;2023-06-04T02:00:26;2.13;;;1.50;;
23270;SDS011;11804;51.118;17.058;2023-06-04T02:02:54;2.90;;;1.47;;
23270;SDS011;11804;51.118;17.058;2023-06-04T02:05:22;2.83;;;1.20;;
23270;SDS011;11804;51.118;17.058;2023-06-04T02:07:50;2.50;;;1.40;;
23270;SDS011;11804;51.118;17.058;2023-06-04T02:10:18;3.70;;;1.53;;
23270;SDS011;11804;51.118;17.058;2023-06-04T02:12:53;3.07;;;1.50;;
23270;SDS011;11804;51.118;17.058;2023-06-04T02:15:25;2.40;;;1.67;;
23270;SDS011;11804;51.118;17.058;2023-06-04T02:17:56;4.80;;;1.60;;
23270;SDS011;11804;51.118;17.058;2023-06-04T02:20:28;3.10;;;1.53;;
23270;SDS011;11804;51.118;17.058;2023-06-04T02:22:56;3.17;;;1.40;;
23270;SDS011;11804;51.118;17.058;2023-06-04T02:25:23;2.27;;;1.30;;
23270;SDS011;11804;51.118;17.058;2023-06-04T02:27:51;2.43;;;1.20;;
23270;SDS011;11804;51.118;17.058;2023-06-04T02:30:19;2.27;;;1.40;;
23270;SDS011;11804;51.118;17.058;2023-06-04T02:32:47;1.97;;;1.20;;
23270;SDS011;11804;51.118;17.058;2023-06-04T02:35:16;1.47;;;1.23;;
23270;SDS011;11804;51.118;17.058;2023-06-04T02:37:44;3.63;;;1.40;;
23270;SDS011;11804;51.118;17.058;2023-06-04T02:40:11;4.57;;;1.77;;
23270;SDS011;11804;51.118;17.058;2023-06-04T02:42:39;2.43;;;1.50;;
23270;SDS011;11804;51.118;17.058;2023-06-04T02:45:07;2.77;;;1.50;;
23270;SDS011;11804;51.118;17.058;2023-06-04T02:47:36;2.50;;;1.80;;
23270;SDS011;11804;51.118;17.058;2023-06-04T02:50:07;3.67;;;1.57;;
23270;SDS011;11804;51.118;17.058;2023-06-04T02:52:36;3.30;;;1.70;;
23270;SDS011;11804;51.118;17.058;2023-06-04T02:55:06;3.57;;;1.40;;
23270;SDS011;11804;51.118;17.058;2023-06-04T02:57:38;2.70;;;1.57;;
23270;SDS011;11804;51.118;17.058;2023-06-04T03:00:09;4.27;;;1.40;;
23270;SDS011;11804;51.118;17.058;2023-06-04T03:02:39;2.47;;;1.57;;
23270;SDS011;11804;51.118;17.058;2023-06-04T03:05:12;2.57;;;1.50;;
23270;SDS011;11804;51.118;17.058;2023-06-04T03:07:43;1.97;;;1.07;;
23270;SDS011;11804;51.118;17.058;2023-06-04T03:10:13;3.23;;;1.63;;
23270;SDS011;11804;51.118;17.058;2023-06-04T03:12:41;3.77;;;1.63;;
23270;SDS011;11804;51.118;17.058;2023-06-04T03:15:10;2.50;;;1.43;;
23270;SDS011;11804;51.118;17.058;2023-06-04T03:17:40;1.60;;;1.20;;
23270;SDS011;11804;51.118;17.058;2023-06-04T03:20:08;2.60;;;2.00;;
23270;SDS011;11804;51.118;17.058;2023-06-04T03:22:36;3.07;;;1.63;;
23270;SDS011;11804;51.118;17.058;2023-06-04T03:25:04;3.63;;;1.73;;
23270;SDS011;11804;51.118;17.058;2023-06-04T03:27:32;2.53;;;1.37;;
23270;SDS011;11804;51.118;17.058;2023-06-04T03:30:00;2.17;;;1.30;;
23270;SDS011;11804;51.118;17.058;2023-06-04T03:32:28;2.83;;;1.63;;
23270;SDS011;11804;51.118;17.058;2023-06-04T03:34:55;2.70;;;1.43;;
23270;SDS011;11804;51.118;17.058;2023-06-04T03:37:23;2.10;;;1.47;;
23270;SDS011;11804;51.118;17.058;2023-06-04T03:39:52;3.83;;;1.63;;
23270;SDS011;11804;51.118;17.058;2023-06-04T03:42:19;2.93;;;1.50;;
23270;SDS011;11804;51.118;17.058;2023-06-04T03:44:47;2.13;;;1.60;;
23270;SDS011;11804;51.118;17.058;2023-06-04T03:47:14;3.10;;;1.77;;
23270;SDS011;11804;51.118;17.058;2023-06-04T03:49:42;2.20;;;1.50;;
23270;SDS011;11804;51.118;17.058;2023-06-04T03:52:09;3.83;;;1.83;;
23270;SDS011;11804;51.118;17.058;2023-06-04T03:54:37;4.27;;;1.70;;
23270;SDS011;11804;51.118;17.058;2023-06-04T03:57:05;2.67;;;1.63;;
23270;SDS011;11804;51.118;17.058;2023-06-04T03:59:32;2.77;;;1.60;;
23270;SDS011;11804;51.118;17.058;2023-06-04T04:02:00;3.20;;;1.70;;
23270;SDS011;11804;51.118;17.058;2023-06-04T04:04:28;3.03;;;1.87;;
23270;SDS011;11804;51.118;17.058;2023-06-04T04:06:55;2.37;;;1.50;;
23270;SDS011;11804;51.118;17.058;2023-06-04T04:09:23;2.83;;;1.50;;
23270;SDS011;11804;51.118;17.058;2023-06-04T04:11:50;3.30;;;1.67;;
23270;SDS011;11804;51.118;17.058;2023-06-04T04:14:18;3.10;;;1.50;;
23270;SDS011;11804;51.118;17.058;2023-06-04T04:16:46;4.43;;;2.03;;
23270;SDS011;11804;51.118;17.058;2023-06-04T04:19:14;3.10;;;1.67;;
23270;SDS011;11804;51.118;17.058;2023-06-04T04:21:42;4.27;;;1.90;;
23270;SDS011;11804;51.118;17.058;2023-06-04T04:24:09;2.50;;;1.50;;
23270;SDS011;11804;51.118;17.058;2023-06-04T04:26:37;4.17;;;2.07;;
23270;SDS011;11804;51.118;17.058;2023-06-04T04:29:05;2.83;;;1.83;;
23270;SDS011;11804;51.118;17.058;2023-06-04T04:31:34;3.63;;;1.67;;
23270;SDS011;11804;51.118;17.058;2023-06-04T04:34:02;3.73;;;1.70;;
23270;SDS011;11804;51.118;17.058;2023-06-04T04:36:31;3.90;;;1.57;;
23270;SDS011;11804;51.118;17.058;2023-06-04T04:39:02;2.13;;;1.40;;
23270;SDS011;11804;51.118;17.058;2023-06-04T04:41:30;2.23;;;1.40;;
23270;SDS011;11804;51.118;17.058;2023-06-04T04:44:04;1.93;;;1.37;;
23270;SDS011;11804;51.118;17.058;2023-06-04T04:46:32;1.85;;;1.32;;
23270;SDS011;11804;51.118;17.058;2023-06-04T04:48:59;3.08;;;1.72;;
23270;SDS011;11804;51.118;17.058;2023-06-04T04:51:27;3.35;;;1.57;;
23270;SDS011;11804;51.118;17.058;2023-06-04T04:53:55;2.87;;;1.70;;
23270;SDS011;11804;51.118;17.058;2023-06-04T04:56:22;2.30;;;1.50;;
23270;SDS011;11804;51.118;17.058;2023-06-04T04:58:51;2.90;;;1.72;;
23270;SDS011;11804;51.118;17.058;2023-06-04T05:01:20;2.87;;;1.35;;
23270;SDS011;11804;51.118;17.058;2023-06-04T05:03:48;4.60;;;2.02;;
23270;SDS011;11804;51.118;17.058;2023-06-04T05:06:16;2.30;;;1.60;;
23270;SDS011;11804;51.118;17.058;2023-06-04T05:08:43;4.03;;;1.45;;
23270;SDS011;11804;51.118;17.058;2023-06-04T05:11:11;3.10;;;1.32;;
23270;SDS011;11804;51.118;17.058;2023-06-04T05:13:38;3.20;;;2.33;;
23270;SDS011;11804;51.118;17.058;2023-06-04T05:16:09;2.02;;;1.45;;
23270;SDS011;11804;51.118;17.058;2023-06-04T05:18:37;2.20;;;1.45;;
23270;SDS011;11804;51.118;17.058;2023-06-04T05:21:10;2.62;;;1.42;;
23270;SDS011;11804;51.118;17.058;2023-06-04T05:23:40;1.70;;;1.27;;
23270;SDS011;11804;51.118;17.058;2023-06-04T05:26:09;3.05;;;1.70;;
23270;SDS011;11804;51.118;17.058;2023-06-04T05:28:37;2.33;;;1.60;;
23270;SDS011;11804;51.118;17.058;2023-06-04T05:31:04;3.02;;;1.50;;
23270;SDS011;11804;51.118;17.058;2023-06-04T05:33:34;2.58;;;1.47;;
23270;SDS011;11804;51.118;17.058;2023-06-04T05:36:01;2.95;;;1.50;;
23270;SDS011;11804;51.118;17.058;2023-06-04T05:38:31;2.10;;;1.50;;
23270;SDS011;11804;51.118;17.058;2023-06-04T05:40:58;2.52;;;1.37;;
23270;SDS011;11804;51.118;17.058;2023-06-04T05:43:26;2.72;;;1.40;;
23270;SDS011;11804;51.118;17.058;2023-06-04T05:45:54;2.47;;;1.50;;
23270;SDS011;11804;51.118;17.058;2023-06-04T05:48:21;2.00;;;1.37;;
23270;SDS011;11804;51.118;17.058;2023-06-04T05:50:49;2.10;;;1.10;;
23270;SDS011;11804;51.118;17.058;2023-06-04T05:53:16;1.55;;;1.35;;
23270;SDS011;11804;51.118;17.058;2023-06-04T05:55:44;2.45;;;1.65;;
23270;SDS011;11804;51.118;17.058;2023-06-04T05:58:14;2.47;;;1.57;;
23270;SDS011;11804;51.118;17.058;2023-06-04T06:00:42;2.40;;;1.50;;
23270;SDS011;11804;51.118;17.058;2023-06-04T06:03:10;1.95;;;1.30;;
23270;SDS011;11804;51.118;17.058;2023-06-04T06:05:38;1.55;;;1.17;;
23270;SDS011;11804;51.118;17.058;2023-06-04T06:08:05;3.72;;;1.20;;
23270;SDS011;11804;51.118;17.058;2023-06-04T06:10:33;2.70;;;1.37;;
23270;SDS011;11804;51.118;17.058;2023-06-04T06:13:01;2.33;;;1.10;;
23270;SDS011;11804;51.118;17.058;2023-06-04T06:15:29;2.08;;;1.40;;
23270;SDS011;11804;51.118;17.058;2023-06-04T06:17:56;1.98;;;0.90;;
23270;SDS011;11804;51.118;17.058;2023-06-04T06:20:24;1.80;;;1.22;;
23270;SDS011;11804;51.118;17.058;2023-06-04T06:22:52;1.32;;;0.90;;
23270;SDS011;11804;51.118;17.058;2023-06-04T06:25:20;2.17;;;1.40;;
23270;SDS011;11804;51.118;17.058;2023-06-04T06:27:48;1.87;;;1.17;;
23270;SDS011;11804;51.118;17.058;2023-06-04T06:30:17;2.10;;;1.05;;
23270;SDS011;11804;51.118;17.058;2023-06-04T06:32:44;1.22;;;1.00;;
23270;SDS011;11804;51.118;17.058;2023-06-04T06:35:13;1.22;;;1.10;;
23270;SDS011;11804;51.118;17.058;2023-06-04T06:37:41;2.80;;;1.47;;
23270;SDS011;11804;51.118;17.058;2023-06-04T06:40:09;2.08;;;1.12;;
23270;SDS011;11804;51.118;17.058;2023-06-04T06:42:37;1.75;;;1.12;;
23270;SDS011;11804;51.118;17.058;2023-06-04T06:45:05;3.60;;;1.30;;
23270;SDS011;11804;51.118;17.058;2023-06-04T06:47:33;1.87;;;1.30;;
23270;SDS011;11804;51.118;17.058;2023-06-04T06:50:01;2.27;;;1.62;;
23270;SDS011;11804;51.118;17.058;2023-06-04T06:52:29;3.10;;;1.10;;
23270;SDS011;11804;51.118;17.058;2023-06-04T06:54:56;1.50;;;0.88;;
23270;SDS011;11804;51.118;17.058;2023-06-04T06:57:24;1.80;;;1.10;;
23270;SDS011;11804;51.118;17.058;2023-06-04T06:59:52;2.08;;;1.30;;
23270;SDS011;11804;51.118;17.058;2023-06-04T07:02:20;1.82;;;0.88;;
23270;SDS011;11804;51.118;17.058;2023-06-04T07:04:48;1.57;;;1.30;;
23270;SDS011;11804;51.118;17.058;2023-06-04T07:07:15;1.50;;;1.10;;
23270;SDS011;11804;51.118;17.058;2023-06-04T07:09:43;1.80;;;1.07;;
23270;SDS011;11804;51.118;17.058;2023-06-04T07:12:11;1.77;;;1.07;;
23270;SDS011;11804;51.118;17.058;2023-06-04T07:14:40;1.98;;;1.30;;
23270;SDS011;11804;51.118;17.058;2023-06-04T07:17:08;1.77;;;1.07;;
23270;SDS011;11804;51.118;17.058;2023-06-04T07:19:36;2.55;;;1.15;;
23270;SDS011;11804;51.118;17.058;2023-06-04T07:22:04;1.92;;;1.20;;
23270;SDS011;11804;51.118;17.058;2023-06-04T07:24:32;1.32;;;1.00;;
23270;SDS011;11804;51.118;17.058;2023-06-04T07:26:59;1.12;;;0.80;;
23270;SDS011;11804;51.118;17.058;2023-06-04T07:29:27;1.57;;;1.20;;
23270;SDS011;11804;51.118;17.058;2023-06-04T07:31:54;1.47;;;1.12;;
23270;SDS011;11804;51.118;17.058;2023-06-04T07:34:22;2.12;;;1.12;;
23270;SDS011;11804;51.118;17.058;2023-06-04T07:36:50;3.35;;;1.17;;
23270;SDS011;11804;51.118;17.058;2023-06-04T07:39:19;1.90;;;1.00;;
23270;SDS011;11804;51.118;17.058;2023-06-04T07:41:47;1.70;;;0.98;;
23270;SDS011;11804;51.118;17.058;2023-06-04T07:44:17;1.40;;;1.00;;
23270;SDS011;11804;51.118;17.058;2023-06-04T07:46:44;1.52;;;1.02;;
23270;SDS011;11804;51.118;17.058;2023-06-04T07:49:12;2.15;;;1.10;;
23270;SDS011;11804;51.118;17.058;2023-06-04T07:51:39;1.27;;;0.90;;
23270;SDS011;11804;51.118;17.058;2023-06-04T07:54:07;1.70;;;1.00;;
23270;SDS011;11804;51.118;17.058;2023-06-04T07:56:36;0.85;;;0.75;;
23270;SDS011;11804;51.118;17.058;2023-06-04T07:59:04;2.37;;;0.80;;
23270;SDS011;11804;51.118;17.058;2023-06-04T08:01:32;2.25;;;1.37;;
23270;SDS011;11804;51.118;17.058;2023-06-04T08:04:00;1.32;;;1.00;;
23270;SDS011;11804;51.118;17.058;2023-06-04T08:06:28;2.12;;;1.37;;
23270;SDS011;11804;51.118;17.058;2023-06-04T08:08:56;1.20;;;0.85;;
23270;SDS011;11804;51.118;17.058;2023-06-04T08:11:23;3.70;;;1.55;;
23270;SDS011;11804;51.118;17.058;2023-06-04T08:13:51;1.52;;;1.00;;
23270;SDS011;11804;51.118;17.058;2023-06-04T08:16:19;1.92;;;0.90;;
23270;SDS011;11804;51.118;17.058;2023-06-04T08:18:46;1.98;;;1.10;;
23270;SDS011;11804;51.118;17.058;2023-06-04T08:21:14;0.93;;;0.80;;
23270;SDS011;11804;51.118;17.058;2023-06-04T08:23:43;1.30;;;0.80;;
23270;SDS011;11804;51.118;17.058;2023-06-04T08:26:11;0.98;;;0.78;;
23270;SDS011;11804;51.118;17.058;2023-06-04T08:28:39;1.85;;;0.90;;
23270;SDS011;11804;51.118;17.058;2023-06-04T08:31:06;1.02;;;0.75;;
23270;SDS011;11804;51.118;17.058;2023-06-04T08:33:34;3.83;;;1.05;;
23270;SDS011;11804;51.118;17.058;2023-06-04T08:36:02;2.10;;;1.10;;
23270;SDS011;11804;51.118;17.058;2023-06-04T08:38:30;0.72;;;0.57;;
23270;SDS011;11804;51.118;17.058;2023-06-04T08:41:03;1.55;;;0.78;;
23270;SDS011;11804;51.118;17.058;2023-06-04T08:43:41;2.15;;;1.27;;
23270;SDS011;11804;51.118;17.058;2023-06-04T08:46:14;1.70;;;0.70;;
23270;SDS011;11804;51.118;17.058;2023-06-04T08:48:44;0.70;;;0.40;;
23270;SDS011;11804;51.118;17.058;2023-06-04T08:51:13;1.15;;;0.82;;
23270;SDS011;11804;51.118;17.058;2023-06-04T08:53:41;2.47;;;0.90;;
23270;SDS011;11804;51.118;17.058;2023-06-04T08:56:11;1.25;;;0.75;;
23270;SDS011;11804;51.118;17.058;2023-06-04T08:58:38;0.90;;;0.70;;
23270;SDS011;11804;51.118;17.058;2023-06-04T09:01:08;0.85;;;0.50;;
23270;SDS011;11804;51.118;17.058;2023-06-04T09:03:36;0.95;;;0.80;;
23270;SDS011;11804;51.118;17.058;2023-06-04T09:06:04;2.37;;;0.93;;
23270;SDS011;11804;51.118;17.058;2023-06-04T09:08:34;0.70;;;0.50;;
23270;SDS011;11804;51.118;17.058;2023-06-04T09:11:04;2.65;;;0.65;;
23270;SDS011;11804;51.118;17.058;2023-06-04T09:13:34;1.60;;;0.85;;
23270;SDS011;11804;51.118;17.058;2023-06-04T09:16:03;1.52;;;0.90;;
23270;SDS011;11804;51.118;17.058;2023-06-04T09:18:32;0.70;;;0.53;;
23270;SDS011;11804;51.118;17.058;2023-06-04T09:21:04;1.57;;;0.60;;
23270;SDS011;11804;51.118;17.058;2023-06-04T09:23:34;1.07;;;0.70;;
23270;SDS011;11804;51.118;17.058;2023-06-04T09:26:11;2.33;;;1.00;;
23270;SDS011;11804;51.118;17.058;2023-06-04T09:28:42;0.72;;;0.70;;
23270;SDS011;11804;51.118;17.058;2023-06-04T09:31:15;1.22;;;0.68;;
23270;SDS011;11804;51.118;17.058;2023-06-04T09:33:48;0.93;;;0.75;;
23270;SDS011;11804;51.118;17.058;2023-06-04T09:36:16;2.80;;;0.90;;
23270;SDS011;11804;51.118;17.058;2023-06-04T09:38:44;2.87;;;1.10;;
23270;SDS011;11804;51.118;17.058;2023-06-04T09:41:13;0.70;;;0.70;;
23270;SDS011;11804;51.118;17.058;2023-06-04T09:43:43;1.67;;;1.02;;
23270;SDS011;11804;51.118;17.058;2023-06-04T09:46:11;1.98;;;0.70;;
23270;SDS011;11804;51.118;17.058;2023-06-04T09:48:40;1.10;;;0.80;;
23270;SDS011;11804;51.118;17.058;2023-06-04T09:53:38;1.02;;;0.65;;
23270;SDS011;11804;51.118;17.058;2023-06-04T09:56:06;1.75;;;0.80;;
23270;SDS011;11804;51.118;17.058;2023-06-04T09:58:37;0.70;;;0.70;;
23270;SDS011;11804;51.118;17.058;2023-06-04T10:01:05;1.67;;;0.90;;
23270;SDS011;11804;51.118;17.058;2023-06-04T10:03:34;1.20;;;0.85;;
23270;SDS011;11804;51.118;17.058;2023-06-04T10:06:03;1.17;;;0.80;;
23270;SDS011;11804;51.118;17.058;2023-06-04T10:08:32;1.17;;;0.68;;
23270;SDS011;11804;51.118;17.058;2023-06-04T10:11:03;1.62;;;0.93;;
23270;SDS011;11804;51.118;17.058;2023-06-04T10:13:35;0.65;;;0.55;;
23270;SDS011;11804;51.118;17.058;2023-06-04T10:16:18;1.12;;;0.70;;
23270;SDS011;11804;51.118;17.058;2023-06-04T10:18:48;0.90;;;0.68;;
23270;SDS011;11804;51.118;17.058;2023-06-04T10:21:18;0.53;;;0.50;;
23270;SDS011;11804;51.118;17.058;2023-06-04T10:23:46;1.62;;;0.75;;
23270;SDS011;11804;51.118;17.058;2023-06-04T10:26:15;1.47;;;0.80;;
23270;SDS011;11804;51.118;17.058;2023-06-04T10:28:43;0.70;;;0.50;;
23270;SDS011;11804;51.118;17.058;2023-06-04T10:31:11;4.12;;;1.20;;
23270;SDS011;11804;51.118;17.058;2023-06-04T10:33:39;1.10;;;0.70;;
23270;SDS011;11804;51.118;17.058;2023-06-04T10:36:17;0.82;;;0.60;;
23270;SDS011;11804;51.118;17.058;2023-06-04T10:38:51;0.65;;;0.57;;
23270;SDS011;11804;51.118;17.058;2023-06-04T10:41:17;1.00;;;0.70;;
23270;SDS011;11804;51.118;17.058;2023-06-04T10:43:48;1.67;;;0.75;;
23270;SDS011;11804;51.118;17.058;2023-06-04T10:46:18;0.93;;;0.60;;
23270;SDS011;11804;51.118;17.058;2023-06-04T10:48:47;0.90;;;0.75;;
23270;SDS011;11804;51.118;17.058;2023-06-04T10:51:34;0.60;;;0.53;;
23270;SDS011;11804;51.118;17.058;2023-06-04T10:54:05;1.30;;;0.75;;
23270;SDS011;11804;51.118;17.058;2023-06-04T10:56:33;1.90;;;0.72;;
23270;SDS011;11804;51.118;17.058;2023-06-04T10:59:15;0.93;;;0.72;;
23270;SDS011;11804;51.118;17.058;2023-06-04T11:01:45;0.90;;;0.80;;
23270;SDS011;11804;51.118;17.058;2023-06-04T11:04:22;1.37;;;0.60;;
23270;SDS011;11804;51.118;17.058;2023-06-04T11:07:03;1.27;;;0.90;;
23270;SDS011;11804;51.118;17.058;2023-06-04T11:09:32;0.90;;;0.72;;
23270;SDS011;11804;51.118;17.058;2023-06-04T11:12:01;1.20;;;0.80;;
23270;SDS011;11804;51.118;17.058;2023-06-04T11:14:31;2.77;;;0.85;;
23270;SDS011;11804;51.118;17.058;2023-06-04T11:17:20;0.82;;;0.70;;
23270;SDS011;11804;51.118;17.058;2023-06-04T11:19:37;0.88;;;0.70;;
23270;SDS011;11804;51.118;17.058;2023-06-04T11:22:06;3.87;;;0.88;;
23270;SDS011;11804;51.118;17.058;2023-06-04T11:24:38;1.22;;;0.98;;
23270;SDS011;11804;51.118;17.058;2023-06-04T11:27:05;1.30;;;0.62;;
23270;SDS011;11804;51.118;17.058;2023-06-04T11:29:33;1.17;;;0.70;;
23270;SDS011;11804;51.118;17.058;2023-06-04T11:32:01;0.88;;;0.60;;
23270;SDS011;11804;51.118;17.058;2023-06-04T11:34:31;1.17;;;0.75;;
23270;SDS011;11804;51.118;17.058;2023-06-04T11:37:09;1.35;;;0.70;;
23270;SDS011;11804;51.118;17.058;2023-06-04T11:39:36;1.47;;;0.90;;
23270;SDS011;11804;51.118;17.058;2023-06-04T11:42:06;1.57;;;0.88;;
23270;SDS011;11804;51.118;17.058;2023-06-04T11:44:34;1.02;;;0.78;;
23270;SDS011;11804;51.118;17.058;2023-06-04T11:47:05;0.88;;;0.60;;
23270;SDS011;11804;51.118;17.058;2023-06-04T11:49:35;1.77;;;1.20;;
23270;SDS011;11804;51.118;17.058;2023-06-04T11:52:04;1.47;;;0.72;;
23270;SDS011;11804;51.118;17.058;2023-06-04T11:54:32;2.42;;;1.47;;
23270;SDS011;11804;51.118;17.058;2023-06-04T11:57:04;1.27;;;0.80;;
23270;SDS011;11804;51.118;17.058;2023-06-04T11:59:32;0.80;;;0.70;;
23270;SDS011;11804;51.118;17.058;2023-06-04T12:02:01;0.82;;;0.60;;
23270;SDS011;11804;51.118;17.058;2023-06-04T12:04:29;1.07;;;0.60;;
23270;SDS011;11804;51.118;17.058;2023-06-04T12:06:58;1.98;;;0.90;;
23270;SDS011;11804;51.118;17.058;2023-06-04T12:09:28;0.78;;;0.72;;
23270;SDS011;11804;51.118;17.058;2023-06-04T12:12:02;1.07;;;0.82;;
23270;SDS011;11804;51.118;17.058;2023-06-04T12:14:31;1.95;;;0.90;;
23270;SDS011;11804;51.118;17.058;2023-06-04T12:17:06;0.95;;;0.70;;
23270;SDS011;11804;51.118;17.058;2023-06-04T12:19:47;1.90;;;1.12;;
23270;SDS011;11804;51.118;17.058;2023-06-04T12:22:17;1.37;;;0.70;;
23270;SDS011;11804;51.118;17.058;2023-06-04T12:24:52;1.25;;;0.80;;
23270;SDS011;11804;51.118;17.058;2023-06-04T12:27:23;0.68;;;0.53;;
23270;SDS011;11804;51.118;17.058;2023-06-04T12:29:58;1.32;;;0.80;;
23270;SDS011;11804;51.118;17.058;2023-06-04T12:32:27;0.98;;;0.60;;
23270;SDS011;11804;51.118;17.058;2023-06-04T12:34:55;1.17;;;0.72;;
23270;SDS011;11804;51.118;17.058;2023-06-04T12:37:23;1.37;;;1.07;;
23270;SDS011;11804;51.118;17.058;2023-06-04T12:39:54;1.10;;;0.68;;
23270;SDS011;11804;51.118;17.058;2023-06-04T12:42:22;1.07;;;0.82;;
23270;SDS011;11804;51.118;17.058;2023-06-04T12:44:50;1.20;;;0.80;;
23270;SDS011;11804;51.118;17.058;2023-06-04T12:47:17;1.07;;;0.88;;
23270;SDS011;11804;51.118;17.058;2023-06-04T12:49:46;0.88;;;0.80;;
23270;SDS011;11804;51.118;17.058;2023-06-04T12:52:16;1.42;;;1.00;;
23270;SDS011;11804;51.118;17.058;2023-06-04T12:54:43;1.37;;;0.80;;
23270;SDS011;11804;51.118;17.058;2023-06-04T12:57:11;1.50;;;0.85;;
23270;SDS011;11804;51.118;17.058;2023-06-04T12:59:40;1.17;;;0.70;;
23270;SDS011;11804;51.118;17.058;2023-06-04T13:02:07;0.68;;;0.57;;
23270;SDS011;11804;51.118;17.058;2023-06-04T13:04:35;1.00;;;0.80;;
23270;SDS011;11804;51.118;17.058;2023-06-04T13:07:03;2.27;;;1.00;;
23270;SDS011;11804;51.118;17.058;2023-06-04T13:09:31;1.42;;;0.80;;
23270;SDS011;11804;51.118;17.058;2023-06-04T13:12:00;1.57;;;0.70;;
23270;SDS011;11804;51.118;17.058;2023-06-04T13:14:29;1.95;;;0.82;;
23270;SDS011;11804;51.118;17.058;2023-06-04T13:16:58;1.57;;;0.70;;
23270;SDS011;11804;51.118;17.058;2023-06-04T13:19:27;1.60;;;0.93;;
23270;SDS011;11804;51.118;17.058;2023-06-04T13:21:54;0.82;;;0.72;;
23270;SDS011;11804;51.118;17.058;2023-06-04T13:24:23;1.07;;;0.82;;
23270;SDS011;11804;51.118;17.058;2023-06-04T13:26:51;1.37;;;0.70;;
23270;SDS011;11804;51.118;17.058;2023-06-04T13:29:19;3.35;;;1.52;;
23270;SDS011;11804;51.118;17.058;2023-06-04T13:31:48;1.47;;;1.12;;
23270;SDS011;11804;51.118;17.058;2023-06-04T13:34:18;2.15;;;1.00;;
23270;SDS011;11804;51.118;17.058;2023-06-04T13:36:46;0.70;;;0.60;;
23270;SDS011;11804;51.118;17.058;2023-06-04T13:39:13;1.00;;;0.78;;
23270;SDS011;11804;51.118;17.058;2023-06-04T13:41:41;1.10;;;0.80;;
23270;SDS011;11804;51.118;17.058;2023-06-04T13:44:09;0.80;;;0.80;;
23270;SDS011;11804;51.118;17.058;2023-06-04T13:46:36;1.72;;;0.93;;
23270;SDS011;11804;51.118;17.058;2023-06-04T13:49:04;1.40;;;0.80;;
23270;SDS011;11804;51.118;17.058;2023-06-04T13:51:32;6.58;;;1.20;;
23270;SDS011;11804;51.118;17.058;2023-06-04T13:53:59;1.47;;;0.78;;
23270;SDS011;11804;51.118;17.058;2023-06-04T13:56:27;1.25;;;0.90;;
23270;SDS011;11804;51.118;17.058;2023-06-04T13:58:54;1.10;;;0.80;;
23270;SDS011;11804;51.118;17.058;2023-06-04T14:01:22;1.40;;;1.00;;
23270;SDS011;11804;51.118;17.058;2023-06-04T14:03:49;0.78;;;0.60;;
23270;SDS011;11804;51.118;17.058;2023-06-04T14:06:18;2.75;;;1.62;;
23270;SDS011;11804;51.118;17.058;2023-06-04T14:08:45;0.90;;;0.70;;
23270;SDS011;11804;51.118;17.058;2023-06-04T14:11:13;1.47;;;0.88;;
23270;SDS011;11804;51.118;17.058;2023-06-04T14:13:40;1.80;;;0.70;;
23270;SDS011;11804;51.118;17.058;2023-06-04T14:16:10;1.47;;;0.60;;
23270;SDS011;11804;51.118;17.058;2023-06-04T14:18:37;0.90;;;0.80;;
23270;SDS011;11804;51.118;17.058;2023-06-04T14:21:05;1.47;;;1.15;;
23270;SDS011;11804;51.118;17.058;2023-06-04T14:23:33;1.07;;;0.80;;
23270;SDS011;11804;51.118;17.058;2023-06-04T14:26:01;2.30;;;1.12;;
23270;SDS011;11804;51.118;17.058;2023-06-04T14:28:29;0.80;;;0.62;;
23270;SDS011;11804;51.118;17.058;2023-06-04T14:30:56;0.70;;;0.70;;
23270;SDS011;11804;51.118;17.058;2023-06-04T14:33:24;1.27;;;0.85;;
23270;SDS011;11804;51.118;17.058;2023-06-04T14:35:52;0.98;;;0.75;;
23270;SDS011;11804;51.118;17.058;2023-06-04T14:38:19;1.72;;;1.00;;
23270;SDS011;11804;51.118;17.058;2023-06-04T14:40:47;2.47;;;1.17;;
23270;SDS011;11804;51.118;17.058;2023-06-04T14:43:14;1.32;;;0.78;;
23270;SDS011;11804;51.118;17.058;2023-06-04T14:45:42;1.35;;;1.05;;
23270;SDS011;11804;51.118;17.058;2023-06-04T14:48:10;0.75;;;0.70;;